sensor_id;sensor_type;location;lat;lon;timestamp;temperature;humidity
58809;DHT22;44579;51.672;7.834;2023-10-19T00:01:24;11.10;78.00
58809;DHT22;44579;51.672;7.834;2023-10-19T00:03:53;11.10;78.10
58809;DHT22;44579;51.672;7.834;2023-10-19T00:06:23;11.00;78.00
58809;DHT22;44579;51.672;7.834;2023-10-19T00:08:50;11.00;78.00
58809;DHT22;44579;51.672;7.834;2023-10-19T00:11:19;11.00;78.00
58809;DHT22;44579;51.672;7.834;2023-10-19T00:13:53;11.00;78.10
58809;DHT22;44579;51.672;7.834;2023-10-19T00:16:21;11.00;79.10
58809;DHT22;44579;51.672;7.834;2023-10-19T00:18:59;11.00;78.20
58809;DHT22;44579;51.672;7.834;2023-10-19T00:21:30;10.90;78.30
58809;DHT22;44579;51.672;7.834;2023-10-19T00:24:03;10.80;78.20
58809;DHT22;44579;51.672;7.834;2023-10-19T00:26:31;10.80;78.20
58809;DHT22;44579;51.672;7.834;2023-10-19T00:28:59;10.80;78.30
58809;DHT22;44579;51.672;7.834;2023-10-19T00:31:41;10.80;78.40
58809;DHT22;44579;51.672;7.834;2023-10-19T00:34:09;10.80;78.50
58809;DHT22;44579;51.672;7.834;2023-10-19T00:36:41;10.80;78.30
58809;DHT22;44579;51.672;7.834;2023-10-19T00:39:12;10.80;78.20
58809;DHT22;44579;51.672;7.834;2023-10-19T00:41:48;10.80;78.30
58809;DHT22;44579;51.672;7.834;2023-10-19T00:44:15;10.80;78.30
58809;DHT22;44579;51.672;7.834;2023-10-19T00:47:06;10.80;78.30
58809;DHT22;44579;51.672;7.834;2023-10-19T00:49:39;10.80;78.40
58809;DHT22;44579;51.672;7.834;2023-10-19T00:52:07;10.80;78.40
58809;DHT22;44579;51.672;7.834;2023-10-19T00:54:47;10.80;78.20
58809;DHT22;44579;51.672;7.834;2023-10-19T00:57:18;10.80;78.20
58809;DHT22;44579;51.672;7.834;2023-10-19T01:00:06;10.90;78.30
58809;DHT22;44579;51.672;7.834;2023-10-19T01:02:48;10.90;78.40
58809;DHT22;44579;51.672;7.834;2023-10-19T01:05:18;10.90;78.20
58809;DHT22;44579;51.672;7.834;2023-10-19T01:07:48;10.90;78.20
58809;DHT22;44579;51.672;7.834;2023-10-19T01:10:23;11.00;78.10
58809;DHT22;44579;51.672;7.834;2023-10-19T01:12:51;11.00;78.30
58809;DHT22;44579;51.672;7.834;2023-10-19T01:15:19;11.00;78.20
58809;DHT22;44579;51.672;7.834;2023-10-19T01:17:56;11.00;78.20
58809;DHT22;44579;51.672;7.834;2023-10-19T01:20:29;11.00;78.40
58809;DHT22;44579;51.672;7.834;2023-10-19T01:23:04;11.00;78.40
58809;DHT22;44579;51.672;7.834;2023-10-19T01:25:48;11.10;78.30
58809;DHT22;44579;51.672;7.834;2023-10-19T01:28:30;11.10;78.40
58809;DHT22;44579;51.672;7.834;2023-10-19T01:31:15;11.10;78.60
58809;DHT22;44579;51.672;7.834;2023-10-19T01:33:44;11.10;78.40
58809;DHT22;44579;51.672;7.834;2023-10-19T01:36:12;11.20;78.50
58809;DHT22;44579;51.672;7.834;2023-10-19T01:39:00;11.10;78.40
58809;DHT22;44579;51.672;7.834;2023-10-19T01:41:38;11.20;78.50
58809;DHT22;44579;51.672;7.834;2023-10-19T01:44:08;11.20;78.50
58809;DHT22;44579;51.672;7.834;2023-10-19T01:46:40;11.20;78.60
58809;DHT22;44579;51.672;7.834;2023-10-19T01:49:13;11.20;78.50
58809;DHT22;44579;51.672;7.834;2023-10-19T01:51:48;11.20;78.60
58809;DHT22;44579;51.672;7.834;2023-10-19T01:54:15;11.20;78.70
58809;DHT22;44579;51.672;7.834;2023-10-19T01:56:43;11.20;78.70
58809;DHT22;44579;51.672;7.834;2023-10-19T01:59:11;11.20;78.80
58809;DHT22;44579;51.672;7.834;2023-10-19T02:01:39;11.20;78.80
58809;DHT22;44579;51.672;7.834;2023-10-19T02:04:09;11.30;79.00
58809;DHT22;44579;51.672;7.834;2023-10-19T02:06:36;11.20;79.00
58809;DHT22;44579;51.672;7.834;2023-10-19T02:09:08;11.30;79.00
58809;DHT22;44579;51.672;7.834;2023-10-19T02:11:50;11.20;79.00
58809;DHT22;44579;51.672;7.834;2023-10-19T02:14:22;11.20;79.20
58809;DHT22;44579;51.672;7.834;2023-10-19T02:16:53;11.20;79.40
58809;DHT22;44579;51.672;7.834;2023-10-19T02:19:25;11.30;79.60
58809;DHT22;44579;51.672;7.834;2023-10-19T02:21:54;11.30;79.80
58809;DHT22;44579;51.672;7.834;2023-10-19T02:24:25;11.30;79.70
58809;DHT22;44579;51.672;7.834;2023-10-19T02:26:57;11.30;79.70
58809;DHT22;44579;51.672;7.834;2023-10-19T02:29:24;11.40;80.00
58809;DHT22;44579;51.672;7.834;2023-10-19T02:31:55;11.40;79.90
58809;DHT22;44579;51.672;7.834;2023-10-19T02:34:23;11.40;80.00
58809;DHT22;44579;51.672;7.834;2023-10-19T02:36:51;11.40;80.00
58809;DHT22;44579;51.672;7.834;2023-10-19T02:39:18;11.40;80.10
58809;DHT22;44579;51.672;7.834;2023-10-19T02:41:47;11.40;80.20
58809;DHT22;44579;51.672;7.834;2023-10-19T02:44:20;11.40;80.30
58809;DHT22;44579;51.672;7.834;2023-10-19T02:46:54;11.40;80.40
58809;DHT22;44579;51.672;7.834;2023-10-19T02:49:27;11.50;80.60
58809;DHT22;44579;51.672;7.834;2023-10-19T02:51:56;11.50;80.70
58809;DHT22;44579;51.672;7.834;2023-10-19T02:54:31;11.40;80.80
58809;DHT22;44579;51.672;7.834;2023-10-19T02:57:03;11.50;80.90
58809;DHT22;44579;51.672;7.834;2023-10-19T02:59:34;11.50;81.00
58809;DHT22;44579;51.672;7.834;2023-10-19T03:02:04;11.50;81.10
58809;DHT22;44579;51.672;7.834;2023-10-19T03:04:42;11.50;81.20
58809;DHT22;44579;51.672;7.834;2023-10-19T03:07:10;11.50;81.40
58809;DHT22;44579;51.672;7.834;2023-10-19T03:09:42;11.60;81.70
58809;DHT22;44579;51.672;7.834;2023-10-19T03:12:16;11.60;82.00
58809;DHT22;44579;51.672;7.834;2023-10-19T03:14:44;11.60;82.10
58809;DHT22;44579;51.672;7.834;2023-10-19T03:17:15;11.60;82.30
58809;DHT22;44579;51.672;7.834;2023-10-19T03:19:43;11.70;82.40
58809;DHT22;44579;51.672;7.834;2023-10-19T03:22:18;11.70;82.60
58809;DHT22;44579;51.672;7.834;2023-10-19T03:26:49;11.70;82.70
58809;DHT22;44579;51.672;7.834;2023-10-19T03:29:17;11.70;82.90
58809;DHT22;44579;51.672;7.834;2023-10-19T03:31:58;11.70;83.00
58809;DHT22;44579;51.672;7.834;2023-10-19T03:34:29;11.70;83.10
58809;DHT22;44579;51.672;7.834;2023-10-19T03:37:02;11.70;83.10
58809;DHT22;44579;51.672;7.834;2023-10-19T03:39:33;11.80;83.30
58809;DHT22;44579;51.672;7.834;2023-10-19T03:42:01;11.70;83.40
58809;DHT22;44579;51.672;7.834;2023-10-19T03:44:28;11.70;83.50
58809;DHT22;44579;51.672;7.834;2023-10-19T03:47:07;11.80;83.70
58809;DHT22;44579;51.672;7.834;2023-10-19T03:49:39;11.80;83.80
58809;DHT22;44579;51.672;7.834;2023-10-19T03:52:07;11.80;83.90
58809;DHT22;44579;51.672;7.834;2023-10-19T03:54:38;11.80;84.10
58809;DHT22;44579;51.672;7.834;2023-10-19T03:57:12;11.90;84.30
58809;DHT22;44579;51.672;7.834;2023-10-19T03:59:39;11.80;84.30
58809;DHT22;44579;51.672;7.834;2023-10-19T04:02:07;11.90;84.50
58809;DHT22;44579;51.672;7.834;2023-10-19T04:04:37;11.90;84.60
58809;DHT22;44579;51.672;7.834;2023-10-19T04:07:06;11.80;84.70
58809;DHT22;44579;51.672;7.834;2023-10-19T04:09:54;11.90;84.80
58809;DHT22;44579;51.672;7.834;2023-10-19T04:12:27;11.90;84.80
58809;DHT22;44579;51.672;7.834;2023-10-19T04:15:01;11.90;85.00
58809;DHT22;44579;51.672;7.834;2023-10-19T04:17:48;11.90;85.00
58809;DHT22;44579;51.672;7.834;2023-10-19T04:20:19;12.00;85.10
58809;DHT22;44579;51.672;7.834;2023-10-19T04:22:46;12.00;85.30
58809;DHT22;44579;51.672;7.834;2023-10-19T04:25:14;12.10;85.50
58809;DHT22;44579;51.672;7.834;2023-10-19T04:27:53;12.00;85.30
58809;DHT22;44579;51.672;7.834;2023-10-19T04:30:24;12.10;85.50
58809;DHT22;44579;51.672;7.834;2023-10-19T04:32:51;12.20;85.70
58809;DHT22;44579;51.672;7.834;2023-10-19T04:35:19;12.20;85.90
58809;DHT22;44579;51.672;7.834;2023-10-19T04:40:18;12.30;86.00
58809;DHT22;44579;51.672;7.834;2023-10-19T04:42:51;12.30;86.20
58809;DHT22;44579;51.672;7.834;2023-10-19T04:45:18;12.40;86.40
58809;DHT22;44579;51.672;7.834;2023-10-19T04:47:49;12.40;86.50
58809;DHT22;44579;51.672;7.834;2023-10-19T04:50:18;12.50;86.70
58809;DHT22;44579;51.672;7.834;2023-10-19T04:52:45;12.50;86.80
58809;DHT22;44579;51.672;7.834;2023-10-19T04:55:13;12.50;87.00
58809;DHT22;44579;51.672;7.834;2023-10-19T04:57:40;12.50;87.20
58809;DHT22;44579;51.672;7.834;2023-10-19T05:00:08;12.60;87.40
58809;DHT22;44579;51.672;7.834;2023-10-19T05:02:41;12.60;87.40
58809;DHT22;44579;51.672;7.834;2023-10-19T05:05:08;12.60;87.40
58809;DHT22;44579;51.672;7.834;2023-10-19T05:07:36;12.70;87.60
58809;DHT22;44579;51.672;7.834;2023-10-19T05:10:03;12.70;87.70
58809;DHT22;44579;51.672;7.834;2023-10-19T05:12:32;12.70;87.90
58809;DHT22;44579;51.672;7.834;2023-10-19T05:14:59;12.70;88.00
58809;DHT22;44579;51.672;7.834;2023-10-19T05:17:26;12.70;88.10
58809;DHT22;44579;51.672;7.834;2023-10-19T05:19:55;12.70;88.20
58809;DHT22;44579;51.672;7.834;2023-10-19T05:22:23;12.80;88.50
58809;DHT22;44579;51.672;7.834;2023-10-19T05:24:52;12.80;88.70
58809;DHT22;44579;51.672;7.834;2023-10-19T05:27:19;12.80;88.80
58809;DHT22;44579;51.672;7.834;2023-10-19T05:29:49;12.80;88.90
58809;DHT22;44579;51.672;7.834;2023-10-19T05:32:20;12.80;89.00
58809;DHT22;44579;51.672;7.834;2023-10-19T05:34:47;12.80;89.10
58809;DHT22;44579;51.672;7.834;2023-10-19T05:37:15;12.80;89.20
58809;DHT22;44579;51.672;7.834;2023-10-19T05:39:44;12.80;89.30
58809;DHT22;44579;51.672;7.834;2023-10-19T05:42:11;12.90;89.50
58809;DHT22;44579;51.672;7.834;2023-10-19T05:44:38;12.90;89.50
58809;DHT22;44579;51.672;7.834;2023-10-19T05:47:06;12.80;89.50
58809;DHT22;44579;51.672;7.834;2023-10-19T05:49:33;12.80;89.60
58809;DHT22;44579;51.672;7.834;2023-10-19T05:52:01;12.80;89.50
58809;DHT22;44579;51.672;7.834;2023-10-19T05:54:30;12.80;90.20
58809;DHT22;44579;51.672;7.834;2023-10-19T05:56:58;12.80;89.70
58809;DHT22;44579;51.672;7.834;2023-10-19T05:59:27;12.80;89.70
58809;DHT22;44579;51.672;7.834;2023-10-19T06:01:58;12.80;89.80
58809;DHT22;44579;51.672;7.834;2023-10-19T06:04:26;12.80;90.00
58809;DHT22;44579;51.672;7.834;2023-10-19T06:06:53;12.80;90.00
58809;DHT22;44579;51.672;7.834;2023-10-19T06:09:20;12.90;90.00
58809;DHT22;44579;51.672;7.834;2023-10-19T06:11:57;12.90;90.10
58809;DHT22;44579;51.672;7.834;2023-10-19T06:14:24;12.90;90.10
58809;DHT22;44579;51.672;7.834;2023-10-19T06:16:51;12.90;90.20
58809;DHT22;44579;51.672;7.834;2023-10-19T06:19:20;12.90;90.20
58809;DHT22;44579;51.672;7.834;2023-10-19T06:21:47;12.90;90.20
58809;DHT22;44579;51.672;7.834;2023-10-19T06:24:14;12.90;90.30
58809;DHT22;44579;51.672;7.834;2023-10-19T06:26:42;12.90;90.30
58809;DHT22;44579;51.672;7.834;2023-10-19T06:29:13;13.00;90.30
58809;DHT22;44579;51.672;7.834;2023-10-19T06:31:48;12.90;90.40
58809;DHT22;44579;51.672;7.834;2023-10-19T06:34:17;13.00;90.40
58809;DHT22;44579;51.672;7.834;2023-10-19T06:36:49;13.00;90.40
58809;DHT22;44579;51.672;7.834;2023-10-19T06:39:20;13.00;90.50
58809;DHT22;44579;51.672;7.834;2023-10-19T06:41:49;13.00;90.50
58809;DHT22;44579;51.672;7.834;2023-10-19T06:44:34;13.00;90.50
58809;DHT22;44579;51.672;7.834;2023-10-19T06:47:02;13.00;90.50
58809;DHT22;44579;51.672;7.834;2023-10-19T06:49:32;13.00;90.70
58809;DHT22;44579;51.672;7.834;2023-10-19T06:52:01;13.00;90.60
58809;DHT22;44579;51.672;7.834;2023-10-19T06:54:34;13.00;91.00
58809;DHT22;44579;51.672;7.834;2023-10-19T06:57:04;13.00;90.70
58809;DHT22;44579;51.672;7.834;2023-10-19T06:59:31;13.00;90.70
58809;DHT22;44579;51.672;7.834;2023-10-19T07:01:59;13.00;90.70
58809;DHT22;44579;51.672;7.834;2023-10-19T07:04:29;13.10;90.70
58809;DHT22;44579;51.672;7.834;2023-10-19T07:06:56;13.10;90.80
58809;DHT22;44579;51.672;7.834;2023-10-19T07:09:23;13.10;90.80
58809;DHT22;44579;51.672;7.834;2023-10-19T07:15:05;13.10;90.80
58809;DHT22;44579;51.672;7.834;2023-10-19T07:17:35;13.20;90.90
58809;DHT22;44579;51.672;7.834;2023-10-19T07:20:02;13.20;91.00
58809;DHT22;44579;51.672;7.834;2023-10-19T07:22:47;13.20;91.00
58809;DHT22;44579;51.672;7.834;2023-10-19T07:25:14;13.20;91.00
58809;DHT22;44579;51.672;7.834;2023-10-19T07:27:42;13.20;91.00
58809;DHT22;44579;51.672;7.834;2023-10-19T07:30:14;13.20;91.00
58809;DHT22;44579;51.672;7.834;2023-10-19T07:32:57;13.30;91.00
58809;DHT22;44579;51.672;7.834;2023-10-19T07:35:40;13.30;91.00
58809;DHT22;44579;51.672;7.834;2023-10-19T07:38:11;13.30;91.00
58809;DHT22;44579;51.672;7.834;2023-10-19T07:40:38;13.40;91.00
58809;DHT22;44579;51.672;7.834;2023-10-19T07:43:05;13.40;91.00
58809;DHT22;44579;51.672;7.834;2023-10-19T07:45:33;13.50;91.10
58809;DHT22;44579;51.672;7.834;2023-10-19T07:48:02;13.50;91.10
58809;DHT22;44579;51.672;7.834;2023-10-19T07:50:37;13.60;91.10
58809;DHT22;44579;51.672;7.834;2023-10-19T07:53:05;13.70;91.20
58809;DHT22;44579;51.672;7.834;2023-10-19T07:55:33;13.70;91.20
58809;DHT22;44579;51.672;7.834;2023-10-19T07:58:01;13.80;91.20
58809;DHT22;44579;51.672;7.834;2023-10-19T08:00:30;13.80;91.20
58809;DHT22;44579;51.672;7.834;2023-10-19T08:02:57;13.90;91.20
58809;DHT22;44579;51.672;7.834;2023-10-19T08:05:25;14.00;91.10
58809;DHT22;44579;51.672;7.834;2023-10-19T08:07:53;14.00;91.50
58809;DHT22;44579;51.672;7.834;2023-10-19T08:10:20;14.00;91.10
58809;DHT22;44579;51.672;7.834;2023-10-19T08:12:48;14.10;91.10
58809;DHT22;44579;51.672;7.834;2023-10-19T08:15:16;14.10;91.10
58809;DHT22;44579;51.672;7.834;2023-10-19T08:17:48;14.20;91.20
58809;DHT22;44579;51.672;7.834;2023-10-19T08:20:16;14.20;91.20
58809;DHT22;44579;51.672;7.834;2023-10-19T08:23:04;14.20;91.20
58809;DHT22;44579;51.672;7.834;2023-10-19T08:25:32;14.10;91.20
58809;DHT22;44579;51.672;7.834;2023-10-19T08:28:20;14.20;91.30
58809;DHT22;44579;51.672;7.834;2023-10-19T08:30:57;14.10;91.30
58809;DHT22;44579;51.672;7.834;2023-10-19T08:33:28;14.10;91.40
58809;DHT22;44579;51.672;7.834;2023-10-19T08:35:57;14.10;91.40
58809;DHT22;44579;51.672;7.834;2023-10-19T08:38:28;14.10;91.40
58809;DHT22;44579;51.672;7.834;2023-10-19T08:40:55;14.20;91.40
58809;DHT22;44579;51.672;7.834;2023-10-19T08:43:23;14.20;91.40
58809;DHT22;44579;51.672;7.834;2023-10-19T08:45:51;14.20;91.40
58809;DHT22;44579;51.672;7.834;2023-10-19T08:48:20;14.20;91.40
58809;DHT22;44579;51.672;7.834;2023-10-19T08:50:47;14.20;91.40
58809;DHT22;44579;51.672;7.834;2023-10-19T08:53:17;14.30;91.50
58809;DHT22;44579;51.672;7.834;2023-10-19T08:55:46;14.30;91.50
58809;DHT22;44579;51.672;7.834;2023-10-19T08:58:17;14.30;91.50
58809;DHT22;44579;51.672;7.834;2023-10-19T09:00:50;14.40;91.50
58809;DHT22;44579;51.672;7.834;2023-10-19T09:03:26;14.50;91.60
58809;DHT22;44579;51.672;7.834;2023-10-19T09:05:56;14.50;91.50
58809;DHT22;44579;51.672;7.834;2023-10-19T09:08:23;14.50;91.50
58809;DHT22;44579;51.672;7.834;2023-10-19T09:10:52;14.60;91.50
58809;DHT22;44579;51.672;7.834;2023-10-19T09:13:22;14.60;91.50
58809;DHT22;44579;51.672;7.834;2023-10-19T09:16:07;14.70;91.50
58809;DHT22;44579;51.672;7.834;2023-10-19T09:18:34;14.90;91.60
58809;DHT22;44579;51.672;7.834;2023-10-19T09:21:03;14.90;91.50
58809;DHT22;44579;51.672;7.834;2023-10-19T09:23:36;14.90;91.50
58809;DHT22;44579;51.672;7.834;2023-10-19T09:26:05;15.00;91.60
58809;DHT22;44579;51.672;7.834;2023-10-19T09:28:37;15.00;91.60
58809;DHT22;44579;51.672;7.834;2023-10-19T09:31:05;15.10;91.60
58809;DHT22;44579;51.672;7.834;2023-10-19T09:33:44;15.10;91.60
58809;DHT22;44579;51.672;7.834;2023-10-19T09:36:13;15.10;91.60
58809;DHT22;44579;51.672;7.834;2023-10-19T09:38:49;15.20;91.60
58809;DHT22;44579;51.672;7.834;2023-10-19T09:41:22;15.20;91.70
58809;DHT22;44579;51.672;7.834;2023-10-19T09:44:04;15.20;91.70
58809;DHT22;44579;51.672;7.834;2023-10-19T09:46:37;15.30;91.70
58809;DHT22;44579;51.672;7.834;2023-10-19T09:49:07;15.30;91.70
58809;DHT22;44579;51.672;7.834;2023-10-19T09:51:43;15.40;91.70
58809;DHT22;44579;51.672;7.834;2023-10-19T09:54:59;15.40;92.10
58809;DHT22;44579;51.672;7.834;2023-10-19T10:00:19;15.50;91.70
58809;DHT22;44579;51.672;7.834;2023-10-19T10:02:53;15.50;91.70
58809;DHT22;44579;51.672;7.834;2023-10-19T10:05:44;15.60;91.70
58809;DHT22;44579;51.672;7.834;2023-10-19T10:10:46;15.70;91.80
58809;DHT22;44579;51.672;7.834;2023-10-19T10:13:35;15.80;91.70
58809;DHT22;44579;51.672;7.834;2023-10-19T10:16:03;15.80;91.70
58809;DHT22;44579;51.672;7.834;2023-10-19T10:18:31;15.90;91.70
58809;DHT22;44579;51.672;7.834;2023-10-19T10:21:06;15.90;91.70
58809;DHT22;44579;51.672;7.834;2023-10-19T10:23:43;15.90;91.70
58809;DHT22;44579;51.672;7.834;2023-10-19T10:26:15;15.90;91.80
58809;DHT22;44579;51.672;7.834;2023-10-19T10:28:46;16.00;91.80
58809;DHT22;44579;51.672;7.834;2023-10-19T10:31:20;16.10;91.80
58809;DHT22;44579;51.672;7.834;2023-10-19T10:33:52;16.10;91.80
58809;DHT22;44579;51.672;7.834;2023-10-19T10:36:23;16.10;91.80
58809;DHT22;44579;51.672;7.834;2023-10-19T10:39:02;16.10;91.80
58809;DHT22;44579;51.672;7.834;2023-10-19T10:41:31;16.20;91.80
58809;DHT22;44579;51.672;7.834;2023-10-19T10:43:59;16.30;91.90
58809;DHT22;44579;51.672;7.834;2023-10-19T10:46:26;16.40;91.90
58809;DHT22;44579;51.672;7.834;2023-10-19T10:48:57;16.50;91.80
58809;DHT22;44579;51.672;7.834;2023-10-19T10:51:26;16.50;91.80
58809;DHT22;44579;51.672;7.834;2023-10-19T10:53:57;16.50;91.80
58809;DHT22;44579;51.672;7.834;2023-10-19T10:56:25;16.50;91.80
58809;DHT22;44579;51.672;7.834;2023-10-19T10:58:52;16.50;91.80
58809;DHT22;44579;51.672;7.834;2023-10-19T11:01:29;16.50;91.80
58809;DHT22;44579;51.672;7.834;2023-10-19T11:04:07;16.50;91.90
58809;DHT22;44579;51.672;7.834;2023-10-19T11:06:55;16.60;91.90
58809;DHT22;44579;51.672;7.834;2023-10-19T11:09:23;16.70;91.90
58809;DHT22;44579;51.672;7.834;2023-10-19T11:11:51;16.80;91.90
58809;DHT22;44579;51.672;7.834;2023-10-19T11:14:21;16.90;91.80
58809;DHT22;44579;51.672;7.834;2023-10-19T11:16:51;17.10;91.70
58809;DHT22;44579;51.672;7.834;2023-10-19T11:19:18;17.20;91.70
58809;DHT22;44579;51.672;7.834;2023-10-19T11:21:55;17.20;91.60
58809;DHT22;44579;51.672;7.834;2023-10-19T11:24:27;17.20;91.50
58809;DHT22;44579;51.672;7.834;2023-10-19T11:26:57;17.20;91.50
58809;DHT22;44579;51.672;7.834;2023-10-19T11:29:27;17.20;91.60
58809;DHT22;44579;51.672;7.834;2023-10-19T11:32:01;17.10;91.60
58809;DHT22;44579;51.672;7.834;2023-10-19T11:34:29;17.10;91.70
58809;DHT22;44579;51.672;7.834;2023-10-19T11:36:57;17.10;91.70
58809;DHT22;44579;51.672;7.834;2023-10-19T11:39:27;17.10;91.70
58809;DHT22;44579;51.672;7.834;2023-10-19T11:41:55;17.10;91.70
58809;DHT22;44579;51.672;7.834;2023-10-19T11:44:22;17.20;91.70
58809;DHT22;44579;51.672;7.834;2023-10-19T11:46:49;17.20;91.70
58809;DHT22;44579;51.672;7.834;2023-10-19T11:49:17;17.20;91.60
58809;DHT22;44579;51.672;7.834;2023-10-19T11:51:44;17.20;91.60
58809;DHT22;44579;51.672;7.834;2023-10-19T11:54:12;17.20;91.60
58809;DHT22;44579;51.672;7.834;2023-10-19T11:56:39;17.30;91.60
58809;DHT22;44579;51.672;7.834;2023-10-19T11:59:06;17.40;91.60
58809;DHT22;44579;51.672;7.834;2023-10-19T12:01:34;17.40;91.50
58809;DHT22;44579;51.672;7.834;2023-10-19T12:04:02;17.50;91.50
58809;DHT22;44579;51.672;7.834;2023-10-19T12:06:29;17.60;91.50
58809;DHT22;44579;51.672;7.834;2023-10-19T12:08:58;17.60;91.40
58809;DHT22;44579;51.672;7.834;2023-10-19T12:11:44;17.60;91.30
58809;DHT22;44579;51.672;7.834;2023-10-19T12:14:14;17.70;91.30
58809;DHT22;44579;51.672;7.834;2023-10-19T12:16:41;17.70;91.30
58809;DHT22;44579;51.672;7.834;2023-10-19T12:19:08;17.70;91.30
58809;DHT22;44579;51.672;7.834;2023-10-19T12:21:36;17.70;91.40
58809;DHT22;44579;51.672;7.834;2023-10-19T12:24:05;17.70;91.40
58809;DHT22;44579;51.672;7.834;2023-10-19T12:26:32;17.60;91.50
58809;DHT22;44579;51.672;7.834;2023-10-19T12:29:00;17.60;91.40
58809;DHT22;44579;51.672;7.834;2023-10-19T12:31:28;17.60;91.50
58809;DHT22;44579;51.672;7.834;2023-10-19T12:33:59;17.70;91.40
58809;DHT22;44579;51.672;7.834;2023-10-19T12:36:26;17.60;91.40
58809;DHT22;44579;51.672;7.834;2023-10-19T12:38:59;17.70;91.40
58809;DHT22;44579;51.672;7.834;2023-10-19T12:41:30;17.70;91.40
58809;DHT22;44579;51.672;7.834;2023-10-19T12:43:59;17.60;91.70
58809;DHT22;44579;51.672;7.834;2023-10-19T12:46:36;17.70;91.30
58809;DHT22;44579;51.672;7.834;2023-10-19T12:49:15;17.60;91.70
58809;DHT22;44579;51.672;7.834;2023-10-19T12:51:45;17.60;91.30
58809;DHT22;44579;51.672;7.834;2023-10-19T12:54:13;17.60;91.20
58809;DHT22;44579;51.672;7.834;2023-10-19T12:56:41;17.60;91.20
58809;DHT22;44579;51.672;7.834;2023-10-19T12:59:08;17.60;91.10
58809;DHT22;44579;51.672;7.834;2023-10-19T13:01:36;17.60;91.00
58809;DHT22;44579;51.672;7.834;2023-10-19T13:04:08;17.60;91.00
58809;DHT22;44579;51.672;7.834;2023-10-19T13:06:44;17.60;91.00
58809;DHT22;44579;51.672;7.834;2023-10-19T13:09:14;17.60;91.00
58809;DHT22;44579;51.672;7.834;2023-10-19T13:11:45;17.60;90.90
58809;DHT22;44579;51.672;7.834;2023-10-19T13:14:13;17.60;90.90
58809;DHT22;44579;51.672;7.834;2023-10-19T13:16:41;17.60;90.90
58809;DHT22;44579;51.672;7.834;2023-10-19T13:19:12;17.60;90.90
58809;DHT22;44579;51.672;7.834;2023-10-19T13:21:41;17.60;90.80
58809;DHT22;44579;51.672;7.834;2023-10-19T13:24:09;17.70;90.80
58809;DHT22;44579;51.672;7.834;2023-10-19T13:26:36;17.70;90.70
58809;DHT22;44579;51.672;7.834;2023-10-19T13:29:07;17.70;90.70
58809;DHT22;44579;51.672;7.834;2023-10-19T13:31:34;17.70;90.60
58809;DHT22;44579;51.672;7.834;2023-10-19T13:34:05;17.80;90.60
58809;DHT22;44579;51.672;7.834;2023-10-19T13:36:38;17.80;90.60
58809;DHT22;44579;51.672;7.834;2023-10-19T13:39:06;17.80;90.80
58809;DHT22;44579;51.672;7.834;2023-10-19T13:41:33;17.70;90.80
58809;DHT22;44579;51.672;7.834;2023-10-19T13:44:01;17.80;90.90
58809;DHT22;44579;51.672;7.834;2023-10-19T13:50:11;17.80;90.70
58809;DHT22;44579;51.672;7.834;2023-10-19T13:52:57;17.80;90.70
58809;DHT22;44579;51.672;7.834;2023-10-19T13:55:38;17.70;90.70
58809;DHT22;44579;51.672;7.834;2023-10-19T13:58:38;17.70;90.70
58809;DHT22;44579;51.672;7.834;2023-10-19T14:01:11;17.60;90.70
58809;DHT22;44579;51.672;7.834;2023-10-19T14:03:44;17.60;90.70
58809;DHT22;44579;51.672;7.834;2023-10-19T14:06:15;17.50;90.60
58809;DHT22;44579;51.672;7.834;2023-10-19T14:09:29;17.60;90.60
58809;DHT22;44579;51.672;7.834;2023-10-19T14:12:24;17.60;90.70
58809;DHT22;44579;51.672;7.834;2023-10-19T14:14:57;17.60;90.60
58809;DHT22;44579;51.672;7.834;2023-10-19T14:17:51;17.60;90.60
58809;DHT22;44579;51.672;7.834;2023-10-19T14:20:51;17.60;90.60
58809;DHT22;44579;51.672;7.834;2023-10-19T14:23:43;17.60;90.60
58809;DHT22;44579;51.672;7.834;2023-10-19T14:26:15;17.50;90.90
58809;DHT22;44579;51.672;7.834;2023-10-19T14:29:11;17.50;90.50
58809;DHT22;44579;51.672;7.834;2023-10-19T14:31:44;17.50;90.50
58809;DHT22;44579;51.672;7.834;2023-10-19T14:34:17;17.40;90.50
58809;DHT22;44579;51.672;7.834;2023-10-19T14:36:52;17.40;90.50
58809;DHT22;44579;51.672;7.834;2023-10-19T14:39:52;17.40;90.50
58809;DHT22;44579;51.672;7.834;2023-10-19T14:45:43;17.30;90.50
58809;DHT22;44579;51.672;7.834;2023-10-19T14:48:15;17.30;90.50
58809;DHT22;44579;51.672;7.834;2023-10-19T14:50:57;17.30;90.50
58809;DHT22;44579;51.672;7.834;2023-10-19T14:53:27;17.20;90.50
58809;DHT22;44579;51.672;7.834;2023-10-19T14:55:55;17.20;90.50
58809;DHT22;44579;51.672;7.834;2023-10-19T14:58:24;17.20;90.40
58809;DHT22;44579;51.672;7.834;2023-10-19T15:00:52;17.20;90.40
58809;DHT22;44579;51.672;7.834;2023-10-19T15:03:22;17.20;90.40
58809;DHT22;44579;51.672;7.834;2023-10-19T15:05:52;17.20;90.40
58809;DHT22;44579;51.672;7.834;2023-10-19T15:08:25;17.20;90.40
58809;DHT22;44579;51.672;7.834;2023-10-19T15:10:56;17.20;90.40
58809;DHT22;44579;51.672;7.834;2023-10-19T15:13:23;17.20;90.50
58809;DHT22;44579;51.672;7.834;2023-10-19T15:15:50;17.20;90.40
58809;DHT22;44579;51.672;7.834;2023-10-19T15:18:18;17.30;90.40
58809;DHT22;44579;51.672;7.834;2023-10-19T15:20:45;17.20;90.30
58809;DHT22;44579;51.672;7.834;2023-10-19T15:23:13;17.20;90.30
58809;DHT22;44579;51.672;7.834;2023-10-19T15:25:40;17.20;90.30
58809;DHT22;44579;51.672;7.834;2023-10-19T15:28:07;17.10;90.30
58809;DHT22;44579;51.672;7.834;2023-10-19T15:30:37;17.10;90.30
58809;DHT22;44579;51.672;7.834;2023-10-19T15:33:05;17.00;90.40
58809;DHT22;44579;51.672;7.834;2023-10-19T15:35:32;17.00;90.40
58809;DHT22;44579;51.672;7.834;2023-10-19T15:38:03;17.00;90.40
58809;DHT22;44579;51.672;7.834;2023-10-19T15:40:31;16.90;90.30
58809;DHT22;44579;51.672;7.834;2023-10-19T15:42:58;16.80;90.30
58809;DHT22;44579;51.672;7.834;2023-10-19T15:45:29;16.80;90.30
58809;DHT22;44579;51.672;7.834;2023-10-19T15:47:58;16.80;90.40
58809;DHT22;44579;51.672;7.834;2023-10-19T15:50:28;16.70;90.40
58809;DHT22;44579;51.672;7.834;2023-10-19T15:52:55;16.70;90.40
58809;DHT22;44579;51.672;7.834;2023-10-19T15:55:22;16.70;90.40
58809;DHT22;44579;51.672;7.834;2023-10-19T15:57:50;16.60;90.50
58809;DHT22;44579;51.672;7.834;2023-10-19T16:00:18;16.60;90.50
58809;DHT22;44579;51.672;7.834;2023-10-19T16:02:47;16.50;90.50
58809;DHT22;44579;51.672;7.834;2023-10-19T16:05:14;16.50;90.50
58809;DHT22;44579;51.672;7.834;2023-10-19T16:07:43;16.50;90.60
58809;DHT22;44579;51.672;7.834;2023-10-19T16:10:12;16.40;90.50
58809;DHT22;44579;51.672;7.834;2023-10-19T16:12:40;16.40;90.60
58809;DHT22;44579;51.672;7.834;2023-10-19T16:15:07;16.40;90.60
58809;DHT22;44579;51.672;7.834;2023-10-19T16:17:35;16.40;90.60